createdAt,value
2022-10-23T00:02:12.850Z,100.00
2022-10-23T00:04:40.565Z,100.00
2022-10-23T00:07:08.355Z,100.00
2022-10-23T00:09:36.412Z,100.00
2022-10-23T00:12:05.675Z,99.56
2022-10-23T00:14:33.537Z,100.00
2022-10-23T00:17:01.281Z,100.00
2022-10-23T00:19:29.063Z,100.00
2022-10-23T00:21:56.881Z,98.99
2022-10-23T00:24:24.722Z,97.65
2022-10-23T00:26:52.452Z,97.83
2022-10-23T00:29:21.571Z,98.94
2022-10-23T00:31:49.277Z,100.00
2022-10-23T00:34:17.009Z,99.23
2022-10-23T00:36:44.768Z,98.36
2022-10-23T00:39:12.506Z,98.44
2022-10-23T00:41:40.305Z,98.18
2022-10-23T00:44:10.917Z,97.08
2022-10-23T00:46:40.394Z,96.58
2022-10-23T00:49:08.842Z,97.25
2022-10-23T00:51:41.557Z,98.50
2022-10-23T00:54:26.336Z,97.13
2022-10-23T00:56:57.123Z,95.84
2022-10-23T00:59:25.307Z,95.56
2022-10-23T01:01:55.155Z,95.43
2022-10-23T01:04:24.892Z,97.80
2022-10-23T01:07:01.820Z,95.99
2022-10-23T01:09:35.936Z,95.28
2022-10-23T01:12:11.582Z,94.53
2022-10-23T01:14:44.900Z,93.43
2022-10-23T01:17:21.033Z,93.76
2022-10-23T01:20:00.626Z,93.87
2022-10-23T01:22:47.932Z,93.32
2022-10-23T01:25:26.027Z,93.30
2022-10-23T01:28:01.456Z,93.41
2022-10-23T01:30:31.905Z,94.31
2022-10-23T01:33:07.526Z,94.23
2022-10-23T01:35:39.092Z,93.53
2022-10-23T01:38:11.820Z,92.93
2022-10-23T01:40:49.371Z,94.19
2022-10-23T01:43:23.158Z,93.96
2022-10-23T01:45:54.165Z,94.30
2022-10-23T01:48:28.459Z,95.23
2022-10-23T01:50:59.855Z,97.37
2022-10-23T01:53:31.281Z,98.64
2022-10-23T01:56:02.273Z,98.66
2022-10-23T01:58:35.455Z,97.27
2022-10-23T02:01:06.484Z,97.44
2022-10-23T02:03:38.434Z,96.47
2022-10-23T02:06:06.754Z,96.52
2022-10-23T02:08:34.729Z,98.21
2022-10-23T02:11:09.026Z,96.64
2022-10-23T02:13:44.922Z,96.75
2022-10-23T02:16:21.055Z,98.22
2022-10-23T02:18:56.220Z,97.00
2022-10-23T02:21:31.808Z,97.48
2022-10-23T02:24:04.223Z,98.99
2022-10-23T02:26:38.808Z,98.39
2022-10-23T02:29:12.071Z,97.26
2022-10-23T02:31:39.819Z,98.04
2022-10-23T02:34:07.654Z,97.35
2022-10-23T02:36:35.409Z,98.98
2022-10-23T02:39:03.126Z,98.35
2022-10-23T02:41:39.175Z,98.95
2022-10-23T02:44:22.493Z,100.00
2022-10-23T02:46:54.661Z,100.00
2022-10-23T02:49:29.111Z,100.00
2022-10-23T02:52:08.132Z,99.98
2022-10-23T02:54:49.473Z,99.21
2022-10-23T02:57:24.048Z,97.18
2022-10-23T03:00:02.737Z,96.35
2022-10-23T03:02:37.751Z,96.89
2022-10-23T03:05:09.479Z,97.67
2022-10-23T03:07:37.654Z,97.57
2022-10-23T03:10:06.383Z,96.61
2022-10-23T03:12:34.413Z,96.59
2022-10-23T03:15:03.583Z,97.74
2022-10-23T03:17:31.317Z,97.46
2022-10-23T03:19:59.076Z,96.15
2022-10-23T03:22:27.056Z,94.50
2022-10-23T03:24:54.813Z,94.84
2022-10-23T03:27:22.609Z,93.99
2022-10-23T03:29:50.448Z,93.87
2022-10-23T03:32:19.465Z,92.86
2022-10-23T03:34:47.382Z,92.93
2022-10-23T03:37:15.183Z,93.54
2022-10-23T03:39:43.197Z,93.67
2022-10-23T03:42:10.889Z,93.83
2022-10-23T03:44:38.609Z,93.55
2022-10-23T03:47:06.626Z,94.87
2022-10-23T03:49:35.661Z,98.87
2022-10-23T03:52:03.463Z,97.80
2022-10-23T03:54:31.378Z,97.78
2022-10-23T03:56:59.050Z,96.86
2022-10-23T03:59:27.154Z,95.50
2022-10-23T04:01:55.035Z,95.08
2022-10-23T04:04:22.851Z,94.09
2022-10-23T04:06:51.974Z,93.16
2022-10-23T04:09:19.969Z,92.44
2022-10-23T04:11:47.625Z,90.11
2022-10-23T04:14:15.446Z,89.40
2022-10-23T04:16:43.602Z,90.10
2022-10-23T04:19:11.282Z,91.80
2022-10-23T04:21:39.048Z,91.17
2022-10-23T04:24:08.663Z,91.26
2022-10-23T04:26:36.439Z,91.19
2022-10-23T04:29:04.254Z,90.48
2022-10-23T04:31:31.987Z,90.63
2022-10-23T04:33:59.735Z,90.46
2022-10-23T04:36:27.519Z,90.35
2022-10-23T04:38:55.154Z,89.54
2022-10-23T04:41:24.284Z,88.49
2022-10-23T04:43:52.066Z,86.63
2022-10-23T04:46:19.909Z,88.50
2022-10-23T04:48:47.786Z,89.09
2022-10-23T04:51:15.496Z,87.71
2022-10-23T04:53:43.175Z,85.42
2022-10-23T04:56:15.322Z,87.45
2022-10-23T04:58:44.381Z,88.93
2022-10-23T05:01:12.342Z,88.54
2022-10-23T05:03:40.369Z,87.45
2022-10-23T05:06:08.374Z,87.26
2022-10-23T05:08:36.496Z,85.09
2022-10-23T05:11:04.247Z,86.02
2022-10-23T05:13:32.040Z,86.49
2022-10-23T05:16:01.300Z,85.36
2022-10-23T05:18:33.657Z,85.76
2022-10-23T05:21:04.212Z,85.44
2022-10-23T05:23:34.335Z,86.56
2022-10-23T05:26:03.277Z,84.93
2022-10-23T05:28:31.056Z,85.23
2022-10-23T05:31:01.875Z,84.19
2022-10-23T05:33:31.479Z,87.24
2022-10-23T05:36:00.059Z,87.24
2022-10-23T05:38:29.066Z,86.49
2022-10-23T05:40:56.779Z,87.67
2022-10-23T05:43:26.010Z,86.76
2022-10-23T05:45:53.767Z,85.95
2022-10-23T05:48:34.224Z,84.17
2022-10-23T05:51:06.706Z,86.83
2022-10-23T05:53:36.183Z,85.28
2022-10-23T05:56:07.800Z,84.38
2022-10-23T05:58:36.066Z,86.06
2022-10-23T06:01:07.186Z,86.65
2022-10-23T06:03:36.494Z,85.75
2022-10-23T06:06:04.701Z,84.52
2022-10-23T06:08:32.861Z,85.39
2022-10-23T06:11:07.028Z,84.37
2022-10-23T06:13:34.698Z,86.08
2022-10-23T06:16:10.034Z,86.25
2022-10-23T06:18:39.168Z,84.49
2022-10-23T06:21:07.282Z,85.04
2022-10-23T06:23:36.318Z,83.11
2022-10-23T06:26:05.164Z,84.28
2022-10-23T06:28:33.111Z,84.68
2022-10-23T06:31:00.917Z,82.28
2022-10-23T06:33:28.611Z,83.39
2022-10-23T06:35:58.533Z,84.71
2022-10-23T06:38:26.273Z,84.85
2022-10-23T06:40:56.429Z,85.63
2022-10-23T06:43:24.230Z,84.28
2022-10-23T06:45:51.955Z,84.30
2022-10-23T06:48:19.834Z,83.71
2022-10-23T06:50:47.611Z,84.31
2022-10-23T06:53:16.648Z,85.11
2022-10-23T06:55:44.496Z,84.45
2022-10-23T06:58:12.189Z,83.19
2022-10-23T07:00:39.939Z,84.11
2022-10-23T07:03:08.668Z,82.96
2022-10-23T07:05:36.383Z,82.62
2022-10-23T07:08:05.656Z,81.92
2022-10-23T07:10:35.762Z,81.45
2022-10-23T07:13:03.549Z,82.27
2022-10-23T07:15:31.625Z,83.01
2022-10-23T07:17:59.336Z,82.13
2022-10-23T07:20:27.176Z,80.16
2022-10-23T07:22:56.186Z,80.20
2022-10-23T07:25:24.688Z,80.76
2022-10-23T07:27:55.385Z,80.71
2022-10-23T07:30:24.262Z,79.80
2022-10-23T07:32:52.023Z,78.09
2022-10-23T07:35:19.942Z,78.06
2022-10-23T07:37:48.615Z,72.83
2022-10-23T07:40:17.332Z,69.87
2022-10-23T07:42:45.278Z,66.26
2022-10-23T07:45:14.396Z,65.75
2022-10-23T07:47:42.420Z,62.06
2022-10-23T07:50:10.833Z,60.68
2022-10-23T07:52:38.689Z,58.12
2022-10-23T07:55:07.065Z,57.69
2022-10-23T07:57:34.809Z,56.02
2022-10-23T08:00:02.553Z,55.90
2022-10-23T08:02:31.761Z,57.91
2022-10-23T08:04:59.494Z,57.67
2022-10-23T08:07:27.312Z,53.60
2022-10-23T08:09:55.088Z,52.83
2022-10-23T08:12:22.782Z,51.44
2022-10-23T08:14:50.481Z,50.80
2022-10-23T08:17:18.193Z,50.21
2022-10-23T08:19:48.420Z,46.30
2022-10-23T08:22:16.300Z,47.86
2022-10-23T08:24:44.105Z,50.70
2022-10-23T08:27:11.847Z,50.69
2022-10-23T08:29:39.631Z,63.57
2022-10-23T08:32:07.430Z,67.37
2022-10-23T08:34:37.810Z,67.12
2022-10-23T08:37:06.862Z,69.51
2022-10-23T08:39:34.575Z,68.81
2022-10-23T08:42:02.408Z,77.56
2022-10-23T08:44:35.069Z,79.04
2022-10-23T08:47:07.633Z,78.55
2022-10-23T08:49:44.250Z,82.30
2022-10-23T08:52:23.518Z,84.70
2022-10-23T08:55:01.329Z,83.77
2022-10-23T08:57:37.776Z,86.25
2022-10-23T09:00:13.432Z,86.57
2022-10-23T09:02:44.704Z,84.73
2022-10-23T09:05:16.729Z,84.87
2022-10-23T09:08:02.129Z,86.12
2022-10-23T09:10:57.404Z,88.50
2022-10-23T09:13:58.245Z,88.94
2022-10-23T09:16:38.897Z,87.09
2022-10-23T09:19:13.848Z,87.54
2022-10-23T09:21:41.691Z,87.28
2022-10-23T09:24:17.838Z,86.86
2022-10-23T09:26:49.611Z,87.33
2022-10-23T09:29:24.197Z,89.25
2022-10-23T09:31:53.791Z,88.56
2022-10-23T09:34:24.085Z,89.44
2022-10-23T09:39:29.566Z,89.58
2022-10-23T09:41:57.647Z,89.98
2022-10-23T09:44:27.923Z,88.37
2022-10-23T09:46:57.292Z,90.27
2022-10-23T09:49:27.596Z,89.44
2022-10-23T09:52:03.134Z,89.08
2022-10-23T09:54:34.605Z,89.16
2022-10-23T09:57:07.794Z,89.95
2022-10-23T09:59:35.816Z,89.40
2022-10-23T10:02:05.087Z,90.62
2022-10-23T10:04:35.285Z,90.15
2022-10-23T10:07:06.642Z,88.04
2022-10-23T10:09:35.809Z,87.32
2022-10-23T10:12:32.470Z,86.25
2022-10-23T10:15:07.147Z,87.60
2022-10-23T10:17:44.957Z,86.08
2022-10-23T10:20:24.900Z,86.58
2022-10-23T10:22:58.560Z,84.95
2022-10-23T10:25:37.097Z,87.15
2022-10-23T10:28:23.481Z,86.29
2022-10-23T10:31:02.225Z,87.90
2022-10-23T10:33:36.850Z,85.73
2022-10-23T10:36:15.397Z,83.66
2022-10-23T10:38:50.732Z,84.41
2022-10-23T10:41:35.461Z,85.16
2022-10-23T10:44:30.657Z,87.00
2022-10-23T10:47:04.196Z,85.69
2022-10-23T10:49:36.863Z,85.77
2022-10-23T10:52:13.246Z,83.75
2022-10-23T10:54:52.743Z,83.41
2022-10-23T10:57:31.712Z,85.29
2022-10-23T11:00:06.518Z,86.06
2022-10-23T11:02:39.540Z,83.18
2022-10-23T11:05:19.946Z,84.96
2022-10-23T11:07:56.337Z,83.66
2022-10-23T11:10:29.790Z,85.95
2022-10-23T11:12:59.030Z,84.40
2022-10-23T11:15:35.680Z,85.47
2022-10-23T11:18:12.642Z,85.18
2022-10-23T11:20:53.665Z,86.03
2022-10-23T11:23:49.376Z,85.25
2022-10-23T11:26:40.504Z,85.09
2022-10-23T11:29:34.846Z,84.16
2022-10-23T11:32:18.653Z,86.33
2022-10-23T11:35:05.002Z,84.67
2022-10-23T11:37:33.282Z,84.97
2022-10-23T11:40:04.864Z,84.74
2022-10-23T11:42:35.151Z,86.10
2022-10-23T11:45:04.616Z,83.36
2022-10-23T11:47:39.530Z,85.64
2022-10-23T11:50:17.024Z,85.33
2022-10-23T11:53:13.669Z,82.68
2022-10-23T11:55:58.207Z,83.95
2022-10-23T11:58:31.728Z,84.20
2022-10-23T12:01:05.419Z,83.73
2022-10-23T12:03:48.997Z,83.21
2022-10-23T12:06:24.042Z,82.68
2022-10-23T12:08:56.088Z,81.52
2022-10-23T12:11:28.814Z,82.27
2022-10-23T12:13:56.821Z,83.35
2022-10-23T12:16:37.106Z,81.40
2022-10-23T12:19:20.152Z,82.25
2022-10-23T12:21:48.307Z,82.91
2022-10-23T12:24:36.483Z,82.41
2022-10-23T12:27:15.332Z,80.86
2022-10-23T12:29:55.549Z,83.04
2022-10-23T12:32:39.489Z,82.58
2022-10-23T12:35:47.854Z,83.54
2022-10-23T12:38:19.016Z,83.83
2022-10-23T12:40:47.333Z,81.76
2022-10-23T12:43:25.928Z,83.10
2022-10-23T12:45:53.967Z,81.04
2022-10-23T12:48:24.492Z,84.30
2022-10-23T12:50:54.597Z,83.14
2022-10-23T12:53:24.149Z,83.88
2022-10-23T12:55:57.452Z,84.29
2022-10-23T12:58:27.610Z,83.16
2022-10-23T13:00:57.118Z,82.72
2022-10-23T13:03:27.914Z,80.48
2022-10-23T13:05:59.537Z,80.85
2022-10-23T13:08:33.385Z,83.05
2022-10-23T13:11:02.038Z,81.29
2022-10-23T13:13:30.064Z,81.73
2022-10-23T13:15:57.794Z,83.01
2022-10-23T13:18:26.978Z,82.84
2022-10-23T13:20:59.865Z,84.16
2022-10-23T13:23:32.395Z,83.37
2022-10-23T13:26:01.701Z,82.76
2022-10-23T13:28:33.192Z,84.31
2022-10-23T13:31:05.254Z,83.34
2022-10-23T13:33:37.339Z,83.40
2022-10-23T13:36:20.479Z,82.39
2022-10-23T13:38:59.854Z,82.33
2022-10-23T13:41:29.901Z,83.33
2022-10-23T13:43:57.685Z,84.51
2022-10-23T13:46:26.470Z,83.99
2022-10-23T13:48:55.599Z,83.85
2022-10-23T13:51:25.066Z,85.13
2022-10-23T13:53:53.426Z,85.55
2022-10-23T13:56:23.233Z,83.75
2022-10-23T13:58:51.335Z,84.20
2022-10-23T14:01:24.219Z,85.72
2022-10-23T14:03:53.049Z,83.71
2022-10-23T14:06:22.168Z,82.64
2022-10-23T14:08:50.203Z,85.53
2022-10-23T14:11:20.117Z,85.98
2022-10-23T14:13:48.477Z,85.60
2022-10-23T14:16:18.333Z,85.87
2022-10-23T14:18:46.013Z,85.62
2022-10-23T14:21:17.568Z,86.49
2022-10-23T14:23:46.837Z,86.92
2022-10-23T14:26:16.821Z,87.99
2022-10-23T14:28:44.621Z,88.12
2022-10-23T14:31:14.326Z,86.76
2022-10-23T14:33:42.535Z,87.48
2022-10-23T14:36:11.107Z,87.23
2022-10-23T14:38:39.031Z,88.54
2022-10-23T14:41:13.117Z,89.18
2022-10-23T14:43:42.556Z,87.89
2022-10-23T14:46:12.400Z,89.54
2022-10-23T14:48:40.354Z,89.55
2022-10-23T14:51:15.887Z,89.22
2022-10-23T14:53:43.669Z,90.01
2022-10-23T14:56:12.727Z,88.29
2022-10-23T14:58:40.474Z,89.36
2022-10-23T15:01:08.294Z,87.25
2022-10-23T15:03:36.102Z,88.53
2022-10-23T15:06:04.119Z,89.20
2022-10-23T15:08:31.803Z,88.06
2022-10-23T15:11:01.315Z,88.84
2022-10-23T15:13:30.447Z,88.38
2022-10-23T15:16:06.669Z,88.43
2022-10-23T15:18:39.157Z,89.41
2022-10-23T15:21:08.510Z,88.05
2022-10-23T15:23:39.166Z,90.48
2022-10-23T15:26:08.714Z,89.42
2022-10-23T15:43:14.068Z,88.49
2022-10-23T15:45:43.870Z,90.74
2022-10-23T15:48:11.739Z,91.72
2022-10-23T15:50:39.618Z,91.96
2022-10-23T15:55:59.168Z,91.89
2022-10-23T15:58:27.658Z,92.10
2022-10-23T16:00:56.959Z,93.74
2022-10-23T16:03:24.794Z,91.73
2022-10-23T16:05:52.622Z,95.05
2022-10-23T16:08:20.383Z,94.39
2022-10-23T16:10:48.137Z,93.99
2022-10-23T16:13:15.869Z,92.39
2022-10-23T16:15:43.691Z,93.53
2022-10-23T16:18:13.160Z,95.65
2022-10-23T16:20:41.225Z,92.61
2022-10-23T16:23:09.099Z,92.85
2022-10-23T16:25:37.452Z,94.61
2022-10-23T16:28:06.142Z,92.54
2022-10-23T16:30:34.066Z,92.92
2022-10-23T16:33:01.861Z,90.22
2022-10-23T16:35:31.489Z,88.04
2022-10-23T16:37:59.253Z,87.21
2022-10-23T16:40:27.130Z,91.55
2022-10-23T16:42:54.927Z,93.59
2022-10-23T16:45:22.692Z,92.67
2022-10-23T16:47:50.545Z,89.75
2022-10-23T16:50:19.027Z,93.33
2022-10-23T16:52:49.898Z,93.11
2022-10-23T16:55:20.084Z,94.65
2022-10-23T16:57:48.155Z,92.96
2022-10-23T17:00:16.693Z,94.08
2022-10-23T17:02:44.875Z,93.13
2022-10-23T17:05:13.093Z,93.46
2022-10-23T17:07:41.067Z,93.80
2022-10-23T17:10:11.198Z,94.79
2022-10-23T17:12:38.932Z,94.98
2022-10-23T17:15:08.325Z,94.05
2022-10-23T17:17:36.135Z,94.06
2022-10-23T17:20:04.811Z,94.85
2022-10-23T17:22:34.939Z,95.70
2022-10-23T17:25:02.921Z,95.30
2022-10-23T17:27:32.149Z,94.98
2022-10-23T17:30:00.005Z,94.22
2022-10-23T17:32:27.736Z,96.95
2022-10-23T17:34:55.468Z,95.24
2022-10-23T17:37:23.315Z,96.26
2022-10-23T17:39:51.113Z,96.29
2022-10-23T17:42:18.796Z,95.18
2022-10-23T17:44:47.881Z,96.10
2022-10-23T17:47:15.609Z,93.54
2022-10-23T17:49:45.474Z,94.59
2022-10-23T17:52:14.986Z,94.11
2022-10-23T17:54:43.203Z,95.10
2022-10-23T17:57:11.016Z,95.78
2022-10-23T17:59:39.149Z,95.07
2022-10-23T18:02:08.566Z,95.61
2022-10-23T18:04:36.439Z,93.39
2022-10-23T18:07:04.149Z,94.13
2022-10-23T18:09:31.896Z,94.03
2022-10-23T18:11:59.707Z,94.56
2022-10-23T18:14:29.500Z,93.25
2022-10-23T18:16:57.768Z,93.85
2022-10-23T18:19:28.202Z,94.15
2022-10-23T18:21:56.000Z,93.20
2022-10-23T18:24:24.338Z,93.12
2022-10-23T18:26:52.071Z,93.72
2022-10-23T18:29:21.384Z,93.69
2022-10-23T18:31:49.197Z,94.80
2022-10-23T18:34:20.162Z,94.62
2022-10-23T18:36:50.718Z,94.84
2022-10-23T18:39:22.363Z,94.28
2022-10-23T18:41:52.915Z,94.84
2022-10-23T18:44:22.730Z,96.67
2022-10-23T18:46:52.104Z,95.26
2022-10-23T18:49:20.726Z,93.89
2022-10-23T18:51:50.807Z,93.69
2022-10-23T18:54:20.058Z,94.82
2022-10-23T18:56:48.322Z,93.00
2022-10-23T18:59:17.907Z,93.37
2022-10-23T19:01:45.906Z,92.61
2022-10-23T19:04:15.961Z,92.81
2022-10-23T19:06:43.881Z,89.89
2022-10-23T19:09:15.227Z,90.11
2022-10-23T19:11:45.244Z,89.79
2022-10-23T19:14:13.763Z,88.92
2022-10-23T19:16:45.441Z,87.80
2022-10-23T19:19:16.999Z,88.96
2022-10-23T19:21:45.675Z,89.32
2022-10-23T19:24:18.967Z,88.30
2022-10-23T19:26:47.511Z,87.63
2022-10-23T19:29:19.538Z,87.41
2022-10-23T19:31:49.409Z,88.30
2022-10-23T19:34:19.879Z,88.75
2022-10-23T19:36:47.852Z,89.63
2022-10-23T19:39:17.495Z,89.26
2022-10-23T19:41:46.519Z,87.45
2022-10-23T19:44:15.833Z,88.44
2022-10-23T19:46:44.452Z,87.45
2022-10-23T19:49:13.406Z,87.82
2022-10-23T19:51:49.634Z,86.73
2022-10-23T19:54:20.927Z,85.13
2022-10-23T19:56:48.848Z,86.41
2022-10-23T19:59:16.997Z,87.00
2022-10-23T20:01:47.918Z,88.40
2022-10-23T20:04:16.849Z,88.66
2022-10-23T20:06:44.718Z,90.51
2022-10-23T20:09:12.598Z,90.98
2022-10-23T20:11:41.899Z,93.26
2022-10-23T20:14:09.771Z,93.61
2022-10-23T20:16:39.639Z,94.64
2022-10-23T20:19:10.619Z,96.66
2022-10-23T20:21:39.894Z,98.50
2022-10-23T20:24:09.014Z,100.00
2022-10-23T20:26:36.903Z,99.93
2022-10-23T20:29:06.433Z,100.00
2022-10-23T20:31:36.303Z,100.00
2022-10-23T20:34:04.455Z,100.00
2022-10-23T20:36:34.071Z,100.00
2022-10-23T20:39:05.333Z,100.00
2022-10-23T20:41:33.828Z,100.00
2022-10-23T20:44:01.982Z,97.92
2022-10-23T20:46:31.220Z,97.12
2022-10-23T20:48:59.445Z,97.49
2022-10-23T20:51:28.053Z,98.57
2022-10-23T20:53:56.106Z,100.00
2022-10-23T20:56:29.996Z,100.00
2022-10-23T20:58:57.997Z,100.00
2022-10-23T21:01:26.417Z,99.58
2022-10-23T21:03:57.785Z,99.87
2022-10-23T21:06:26.952Z,99.31
2022-10-23T21:08:56.283Z,97.85
2022-10-23T21:11:24.579Z,98.93
2022-10-23T21:13:52.706Z,98.43
2022-10-23T21:16:26.104Z,100.00
2022-10-23T21:18:58.303Z,100.00
2022-10-23T21:21:27.573Z,100.00
2022-10-23T21:23:58.066Z,100.00
2022-10-23T21:26:29.980Z,100.00
2022-10-23T21:29:13.710Z,100.00
2022-10-23T21:31:45.573Z,99.85
2022-10-23T21:34:14.655Z,98.39
2022-10-23T21:37:10.821Z,97.55
2022-10-23T21:39:34.296Z,95.22
2022-10-23T21:42:02.201Z,94.74
2022-10-23T21:44:29.880Z,94.45
2022-10-23T21:46:57.570Z,93.84
2022-10-23T21:49:26.647Z,95.30
2022-10-23T21:51:54.902Z,95.13
2022-10-23T21:54:23.303Z,94.15
2022-10-23T21:56:53.762Z,92.45
2022-10-23T21:59:26.681Z,91.85
2022-10-23T22:01:57.115Z,91.36
2022-10-23T22:04:26.322Z,92.10
2022-10-23T22:06:54.204Z,92.51
2022-10-23T22:09:23.003Z,94.18
2022-10-23T22:11:51.388Z,91.47
2022-10-23T22:14:19.462Z,91.95
2022-10-23T22:16:47.215Z,91.31
2022-10-23T22:19:17.855Z,90.96
2022-10-23T22:21:48.720Z,90.73
2022-10-23T22:24:17.874Z,90.78
2022-10-23T22:26:48.202Z,90.63
2022-10-23T22:29:18.432Z,90.71
2022-10-23T22:31:49.608Z,90.10
2022-10-23T22:34:33.970Z,89.64
2022-10-23T22:37:10.398Z,89.81
2022-10-23T22:39:38.359Z,90.35
2022-10-23T22:42:06.133Z,91.87
2022-10-23T22:44:33.795Z,91.16
2022-10-23T22:47:01.528Z,91.90
2022-10-23T22:49:29.464Z,90.71
2022-10-23T22:51:57.129Z,89.74
2022-10-23T22:54:26.728Z,88.73
2022-10-23T22:56:54.444Z,90.60
2022-10-23T22:59:22.086Z,91.70
2022-10-23T23:01:50.711Z,93.53
2022-10-23T23:04:37.352Z,93.48
2022-10-23T23:07:06.024Z,92.99
2022-10-23T23:09:36.820Z,96.09
2022-10-23T23:12:04.804Z,95.66
2022-10-23T23:14:32.683Z,95.67
2022-10-23T23:17:00.472Z,99.18
2022-10-23T23:19:28.526Z,98.13
2022-10-23T23:21:57.057Z,100.00
2022-10-23T23:24:25.195Z,100.00
2022-10-23T23:26:54.358Z,97.54
2022-10-23T23:29:22.093Z,98.80
2022-10-23T23:31:50.042Z,98.63
2022-10-23T23:34:18.365Z,99.42
2022-10-23T23:36:46.122Z,98.96
2022-10-23T23:39:13.936Z,100.00
2022-10-23T23:41:41.692Z,99.37
2022-10-23T23:44:11.469Z,100.00
2022-10-23T23:46:39.103Z,99.08
2022-10-23T23:49:06.920Z,99.00
2022-10-23T23:51:35.278Z,97.13
2022-10-23T23:54:02.983Z,97.00
2022-10-23T23:56:31.908Z,96.70
2022-10-23T23:58:59.723Z,95.72
